Time;durP1;ratioP1;P1;durP2;ratioP2;P2;SDS_P1;SDS_P2;PMS_P1;PMS_P2;Temp;Humidity;BMP_temperature;BMP_pressure;BME280_temperature;BME280_humidity;BME280_pressure;Samples;Min_cycle;Max_cycle;Signal;HPM_P1;HPM_P2
2023/03/03 00:01:43;;;;;;;10.50;9.50;;;;;;;3.51;86.60;95486.00;4334550;32;20329;-54
2023/03/03 00:04:11;;;;;;;7.40;6.70;;;;;;;3.53;86.26;95489.16;4326874;32;20503;-54
2023/03/03 00:06:38;;;;;;;6.50;6.10;;;;;;;3.57;86.34;95485.00;4336317;32;20231;-57
2023/03/03 00:09:05;;;;;;;7.07;6.47;;;;;;;3.53;86.45;95487.34;4313152;32;20282;-56
2023/03/03 00:11:33;;;;;;;7.40;6.90;;;;;;;3.63;86.45;95482.19;4338815;32;20277;-57
2023/03/03 00:14:00;;;;;;;14.03;5.80;;;;;;;3.89;85.14;95491.13;4303806;32;20266;-56
2023/03/03 00:16:37;;;;;;;6.97;6.47;;;;;;;3.62;86.12;95492.91;4333570;32;20278;-57
2023/03/03 00:19:18;;;;;;;11.77;8.00;;;;;;;3.78;85.34;95481.56;4326099;32;20407;-55
2023/03/03 00:21:50;;;;;;;7.83;7.17;;;;;;;3.83;84.34;95476.38;4341393;32;20372;-57
2023/03/03 00:24:35;;;;;;;9.10;6.43;;;;;;;3.73;85.13;95479.69;4334757;32;20344;-56
2023/03/03 00:27:26;;;;;;;7.07;6.57;;;;;;;3.70;85.15;95482.81;4339634;32;20270;-56
2023/03/03 00:29:58;;;;;;;9.43;8.27;;;;;;;3.50;85.80;95477.31;4316850;32;20284;-56
2023/03/03 00:32:51;;;;;;;8.07;7.57;;;;;;;3.74;84.89;95477.88;4316805;32;20281;-55
2023/03/03 00:35:26;;;;;;;6.17;5.67;;;;;;;3.58;86.10;95473.47;4313546;32;20282;-56
2023/03/03 00:37:56;;;;;;;8.50;7.90;;;;;;;3.31;86.74;95476.84;4326752;32;20285;-54
2023/03/03 00:40:44;;;;;;;8.27;7.70;;;;;;;3.43;86.60;95476.72;4313959;32;20314;-53
2023/03/03 00:43:34;;;;;;;10.13;8.23;;;;;;;3.68;85.54;95474.37;4340392;32;20322;-57
2023/03/03 00:46:02;;;;;;;5.30;4.83;;;;;;;3.67;86.09;95482.50;4337220;32;20277;-56
2023/03/03 00:48:37;;;;;;;13.33;7.13;;;;;;;3.64;85.90;95475.91;4335703;32;20285;-52
2023/03/03 00:51:22;;;;;;;11.50;8.10;;;;;;;3.42;86.41;95483.00;4341461;32;20281;-53
2023/03/03 00:53:48;;;;;;;11.57;9.07;;;;;;;3.62;86.19;95485.06;4315984;32;20388;-54
2023/03/03 00:56:14;;;;;;;7.30;6.73;;;;;;;3.75;85.47;95488.09;4327665;32;20337;-56
2023/03/03 00:58:44;;;;;;;5.80;5.40;;;;;;;3.71;85.45;95479.13;4322441;32;20192;-54
2023/03/03 01:01:11;;;;;;;6.43;5.97;;;;;;;3.76;85.01;95487.03;4354215;32;20277;-53
2023/03/03 01:03:37;;;;;;;6.47;5.90;;;;;;;3.51;86.14;95488.59;4354189;32;20297;-55
2023/03/03 01:06:05;;;;;;;10.70;8.93;;;;;;;3.65;85.67;95487.97;4359244;32;20328;-55
2023/03/03 01:08:30;;;;;;;6.70;6.30;;;;;;;3.61;85.39;95488.72;4350723;32;20352;-53
2023/03/03 01:11:00;;;;;;;8.87;6.77;;;;;;;3.85;84.90;95484.78;4369826;32;20287;-55
2023/03/03 01:13:29;;;;;;;6.77;6.13;;;;;;;3.87;84.36;95493.22;4358544;32;20181;-57
2023/03/03 01:15:59;;;;;;;7.50;6.67;;;;;;;3.55;85.82;95493.09;4324773;32;20289;-57
2023/03/03 01:18:28;;;;;;;6.67;6.17;;;;;;;3.64;85.39;95494.25;4333396;32;20327;-55
2023/03/03 01:20:54;;;;;;;7.17;6.33;;;;;;;3.64;85.89;95489.03;4349651;32;20354;-51
2023/03/03 01:23:21;;;;;;;10.57;7.13;;;;;;;3.67;85.79;95482.50;4327752;32;20277;-52
2023/03/03 01:25:47;;;;;;;7.43;6.77;;;;;;;3.63;85.42;95484.03;4341653;32;20272;-56
2023/03/03 01:28:14;;;;;;;6.27;5.63;;;;;;;3.49;86.56;95483.59;4357241;32;20293;-55
2023/03/03 01:30:40;;;;;;;10.73;7.10;;;;;;;3.42;86.45;95480.38;4348017;32;20357;-56
2023/03/03 01:33:07;;;;;;;7.40;6.70;;;;;;;3.34;87.24;95484.19;4352317;32;20285;-57
2023/03/03 01:35:35;;;;;;;6.47;5.97;;;;;;;3.30;87.26;95482.31;4363736;32;20313;-57
2023/03/03 01:38:01;;;;;;;6.57;6.17;;;;;;;3.33;87.57;95487.06;4336861;32;20316;-56
2023/03/03 01:40:29;;;;;;;6.93;6.33;;;;;;;3.64;86.55;95480.34;4353047;32;20288;-57
2023/03/03 01:42:55;;;;;;;7.50;6.93;;;;;;;3.46;86.76;95468.34;4335749;32;20277;-56
2023/03/03 01:45:41;;;;;;;7.03;6.43;;;;;;;3.49;86.06;95467.88;4341745;32;20295;-56
2023/03/03 01:48:42;;;;;;;8.90;6.73;;;;;;;3.38;87.28;95464.31;4352273;32;20303;-56
2023/03/03 01:51:24;;;;;;;7.10;6.47;;;;;;;3.59;86.33;95469.81;4301552;32;20273;-55
2023/03/03 01:53:55;;;;;;;5.80;5.40;;;;;;;3.55;86.37;95469.50;4348039;32;20357;-56
2023/03/03 01:56:21;;;;;;;7.63;6.83;;;;;;;3.80;85.42;95459.28;4347314;32;20277;-56
2023/03/03 01:59:02;;;;;;;4.97;4.40;;;;;;;3.60;85.89;95460.91;4349679;32;20265;-58
2023/03/03 02:01:31;;;;;;;7.83;7.33;;;;;;;3.33;86.74;95463.47;4344344;32;20186;-56
2023/03/03 02:03:58;;;;;;;7.77;7.17;;;;;;;3.55;86.20;95461.62;4331800;32;20296;-56
2023/03/03 02:06:29;;;;;;;5.47;5.07;;;;;;;3.30;86.67;95461.34;4345294;32;20284;-56
2023/03/03 02:09:28;;;;;;;7.77;7.30;;;;;;;3.40;87.15;95454.38;4354701;32;20288;-57
2023/03/03 02:12:18;;;;;;;7.90;7.20;;;;;;;3.37;87.05;95462.75;4339084;32;20340;-58
2023/03/03 02:14:45;;;;;;;8.30;5.30;;;;;;;3.33;87.21;95461.62;4351971;32;21673;-55
2023/03/03 02:17:13;;;;;;;6.93;6.40;;;;;;;3.37;87.24;95462.75;4352063;32;20273;-55
2023/03/03 02:20:02;;;;;;;8.53;6.47;;;;;;;3.27;87.47;95457.38;4358189;32;20296;-57
2023/03/03 02:22:52;;;;;;;9.27;8.33;;;;;;;3.24;88.00;95460.50;4348691;32;20273;-58
2023/03/03 02:25:47;;;;;;;9.00;8.20;;;;;;;3.25;87.68;95463.91;4363592;32;20375;-56
2023/03/03 02:28:14;;;;;;;8.10;5.80;;;;;;;3.41;86.83;95465.66;4351537;32;20304;-57
2023/03/03 02:30:40;;;;;;;6.53;5.97;;;;;;;3.35;86.78;95459.56;4333343;32;20349;-58
2023/03/03 02:33:07;;;;;;;5.77;5.37;;;;;;;3.42;87.11;95460.19;4344387;32;20273;-56
2023/03/03 02:35:39;;;;;;;6.03;5.63;;;;;;;3.40;87.10;95459.63;4347328;32;20349;-57
2023/03/03 02:38:41;;;;;;;7.93;6.70;;;;;;;3.30;87.34;95462.16;4313790;32;20330;-56
2023/03/03 02:41:41;;;;;;;8.37;7.80;;;;;;;3.41;86.92;95468.28;4341769;32;20277;-55
2023/03/03 02:44:20;;;;;;;6.20;5.90;;;;;;;3.29;87.62;95476.28;4359777;32;20289;-56
2023/03/03 02:46:48;;;;;;;5.87;5.43;;;;;;;3.30;87.24;95472.63;4312266;32;20370;-56
2023/03/03 02:49:38;;;;;;;6.43;5.93;;;;;;;3.29;88.05;95470.25;4289610;32;20353;-55
2023/03/03 02:52:09;;;;;;;7.57;6.97;;;;;;;3.32;87.72;95467.16;4348143;32;20335;-57
2023/03/03 02:54:36;;;;;;;9.27;8.50;;;;;;;3.36;87.72;95463.78;4340720;32;20296;-55
2023/03/03 02:57:03;;;;;;;5.77;5.40;;;;;;;3.59;87.12;95462.72;4339738;32;20291;-55
2023/03/03 02:59:30;;;;;;;6.63;6.07;;;;;;;3.55;87.14;95453.75;4303422;32;20278;-58
2023/03/03 03:01:56;;;;;;;7.27;6.60;;;;;;;3.59;87.02;95454.06;4343757;32;20270;-58
2023/03/03 03:04:24;;;;;;;6.30;5.83;;;;;;;3.59;86.80;95459.31;4345657;32;20292;-57
2023/03/03 03:06:53;;;;;;;7.23;6.53;;;;;;;3.47;87.60;95458.66;4347705;32;20223;-56
2023/03/03 03:09:21;;;;;;;7.03;6.63;;;;;;;3.35;87.74;95456.94;4324902;32;20281;-54
2023/03/03 03:11:48;;;;;;;6.17;5.77;;;;;;;3.45;87.84;95459.69;4322901;32;20277;-56
2023/03/03 03:14:14;;;;;;;7.70;6.53;;;;;;;3.69;86.94;95444.50;4344273;32;20407;-57
2023/03/03 03:16:42;;;;;;;8.53;7.67;;;;;;;3.57;87.29;95453.53;4348148;32;20300;-55
2023/03/03 03:19:08;;;;;;;5.90;5.37;;;;;;;3.67;86.92;95456.25;4321359;32;20308;-55
2023/03/03 03:21:35;;;;;;;6.00;5.53;;;;;;;3.62;86.65;95451.75;4339571;32;20361;-56
2023/03/03 03:24:02;;;;;;;5.63;5.23;;;;;;;3.80;86.40;95455.88;4347995;32;20300;-53
2023/03/03 03:26:28;;;;;;;9.00;8.10;;;;;;;3.61;86.94;95452.78;4322902;32;20286;-53
2023/03/03 03:28:55;;;;;;;5.70;5.30;;;;;;;3.83;86.66;95454.59;4340372;32;20389;-55
2023/03/03 03:31:21;;;;;;;9.57;7.07;;;;;;;3.72;86.40;95464.19;4296212;32;20186;-55
2023/03/03 03:33:48;;;;;;;6.57;5.97;;;;;;;3.75;86.13;95467.09;4340571;32;20324;-53
2023/03/03 03:36:15;;;;;;;6.70;6.10;;;;;;;3.67;86.49;95469.38;4321451;32;20184;-54
2023/03/03 03:38:42;;;;;;;7.27;6.57;;;;;;;3.65;86.67;95466.22;4333329;32;20296;-54
2023/03/03 03:41:10;;;;;;;7.37;6.73;;;;;;;3.66;87.02;95470.41;4308866;32;20357;-55
2023/03/03 03:43:37;;;;;;;10.30;8.07;;;;;;;3.88;85.93;95465.94;4305237;32;20297;-54
2023/03/03 03:46:04;;;;;;;7.70;6.90;;;;;;;3.81;86.01;95465.31;4307050;32;20294;-55
2023/03/03 03:48:36;;;;;;;8.50;7.67;;;;;;;3.60;87.08;95466.94;4326537;32;20292;-55
2023/03/03 03:51:03;;;;;;;7.33;6.63;;;;;;;3.64;87.24;95462.78;4327397;32;20190;-56
2023/03/03 03:53:29;;;;;;;8.03;6.30;;;;;;;3.65;87.47;95466.22;4304551;32;20274;-56
2023/03/03 03:55:54;;;;;;;6.50;5.87;;;;;;;3.65;87.45;95459.13;4316156;32;20275;-55
2023/03/03 03:58:21;;;;;;;5.87;5.43;;;;;;;3.55;87.82;95461.62;4325651;32;20265;-55
2023/03/03 04:00:47;;;;;;;7.13;6.43;;;;;;;3.60;87.68;95455.66;4339632;32;20265;-56
2023/03/03 04:03:14;;;;;;;6.23;5.83;;;;;;;3.83;87.03;95465.87;4329591;32;20298;-55
2023/03/03 04:05:42;;;;;;;7.43;6.93;;;;;;;3.89;86.91;95462.28;4319517;32;20376;-56
2023/03/03 04:08:09;;;;;;;6.27;5.87;;;;;;;3.98;86.15;95468.63;4326729;32;20353;-55
2023/03/03 04:10:35;;;;;;;6.57;6.00;;;;;;;3.78;86.92;95461.34;4319810;32;20371;-56
2023/03/03 04:13:03;;;;;;;5.67;5.33;;;;;;;4.10;85.89;95461.44;4303554;32;20307;-54
2023/03/03 04:15:29;;;;;;;8.90;7.97;;;;;;;3.91;86.05;95468.06;4317216;32;20300;-53
2023/03/03 04:17:55;;;;;;;12.03;7.20;;;;;;;4.03;85.88;95460.81;4341339;32;20293;-55
2023/03/03 04:20:21;;;;;;;7.57;6.80;;;;;;;3.91;86.05;95465.44;4335651;32;20291;-56
2023/03/03 04:22:49;;;;;;;9.83;6.77;;;;;;;3.89;86.74;95471.97;4288879;32;20190;-55
2023/03/03 04:25:16;;;;;;;7.63;7.00;;;;;;;3.64;87.43;95477.72;4344477;32;20368;-56
2023/03/03 04:27:44;;;;;;;6.83;6.33;;;;;;;3.95;86.89;95466.50;4346049;32;20269;-55
2023/03/03 04:30:13;;;;;;;10.93;7.93;;;;;;;3.93;86.74;95470.44;4339649;32;20293;-53
2023/03/03 04:32:39;;;;;;;6.80;6.00;;;;;;;3.83;87.14;95475.56;4323060;32;20274;-54
2023/03/03 04:35:06;;;;;;;11.33;8.40;;;;;;;3.94;86.95;95472.81;4317764;32;20340;-54
2023/03/03 04:37:32;;;;;;;6.53;6.13;;;;;;;3.81;87.30;95478.44;4329856;32;20205;-56
2023/03/03 04:39:59;;;;;;;8.47;7.60;;;;;;;3.86;87.41;95475.88;4317926;32;20285;-55
2023/03/03 04:42:26;;;;;;;8.70;7.93;;;;;;;4.05;86.55;95474.50;4325300;32;20297;-57
2023/03/03 04:44:53;;;;;;;5.07;4.87;;;;;;;4.02;86.60;95476.81;4336528;32;20284;-54
2023/03/03 04:47:19;;;;;;;6.33;5.83;;;;;;;4.03;86.35;95473.94;4298110;32;20381;-53
2023/03/03 04:49:44;;;;;;;8.17;7.57;;;;;;;3.99;86.70;95475.47;4329734;32;20442;-54
2023/03/03 04:52:11;;;;;;;6.67;6.17;;;;;;;4.10;86.85;95471.13;4342677;32;20243;-55
2023/03/03 04:54:40;;;;;;;6.53;6.03;;;;;;;4.02;86.59;95474.19;4327431;32;20246;-55
2023/03/03 04:57:08;;;;;;;7.27;6.47;;;;;;;4.02;86.80;95467.09;4354345;32;20296;-54
2023/03/03 04:59:36;;;;;;;7.37;6.73;;;;;;;4.09;86.79;95466.91;4348047;32;20355;-55
2023/03/03 05:02:06;;;;;;;15.43;8.00;;;;;;;4.19;86.13;95468.81;4354746;32;20296;-54
2023/03/03 05:04:32;;;;;;;7.90;6.47;;;;;;;4.10;86.54;95471.13;4337992;32;20303;-53
2023/03/03 05:07:00;;;;;;;6.80;6.30;;;;;;;4.05;86.48;95471.88;4344926;32;20304;-52
2023/03/03 05:09:27;;;;;;;8.63;7.83;;;;;;;4.09;86.72;95470.34;4313571;32;20293;-55
2023/03/03 05:11:54;;;;;;;8.97;7.83;;;;;;;4.07;86.47;95469.78;4362809;32;20332;-54
2023/03/03 05:14:20;;;;;;;8.17;6.83;;;;;;;4.18;86.01;95472.50;4340113;32;20361;-53
2023/03/03 05:16:49;;;;;;;8.17;7.13;;;;;;;4.32;85.60;95469.22;4320135;32;20371;-56
2023/03/03 05:19:17;;;;;;;8.23;7.57;;;;;;;4.10;86.18;95471.91;4321792;32;20437;-56
2023/03/03 05:21:43;;;;;;;6.57;6.07;;;;;;;4.30;85.70;95468.69;4321316;32;20352;-54
2023/03/03 05:24:09;;;;;;;8.90;7.77;;;;;;;4.26;85.48;95474.69;4339335;32;20339;-55
2023/03/03 05:26:36;;;;;;;5.07;4.77;;;;;;;4.29;85.52;95469.72;4349219;32;20259;-53
2023/03/03 05:29:02;;;;;;;10.07;6.50;;;;;;;4.18;85.90;95472.50;4331061;32;20292;-54
2023/03/03 05:31:28;;;;;;;13.87;8.40;;;;;;;4.15;86.26;95465.94;4347439;32;20334;-55
2023/03/03 05:33:54;;;;;;;8.00;7.23;;;;;;;4.27;85.70;95471.81;4347728;32;20348;-53
2023/03/03 05:36:21;;;;;;;8.93;8.00;;;;;;;4.37;85.15;95466.63;4352128;32;20200;-55
2023/03/03 05:38:49;;;;;;;8.30;7.57;;;;;;;4.10;86.13;95479.78;4338546;32;20270;-55
2023/03/03 05:41:19;;;;;;;7.17;6.47;;;;;;;4.20;86.13;95481.72;4296792;32;23445;-56
2023/03/03 05:43:47;;;;;;;9.20;8.43;;;;;;;4.09;85.99;95491.34;4347177;32;20298;-56
2023/03/03 05:46:15;;;;;;;8.67;7.93;;;;;;;4.00;86.66;95492.81;4315572;32;20298;-55
2023/03/03 05:48:42;;;;;;;10.43;7.70;;;;;;;4.04;86.39;95493.91;4356113;32;20289;-56
2023/03/03 05:51:09;;;;;;;8.97;6.80;;;;;;;3.93;86.73;95502.72;4357188;32;20277;-54
2023/03/03 05:53:35;;;;;;;11.70;8.80;;;;;;;4.04;86.29;95503.59;4327465;32;20325;-55
2023/03/03 05:56:01;;;;;;;11.97;8.17;;;;;;;3.98;86.40;95499.34;4330434;32;20296;-54
2023/03/03 05:58:26;;;;;;;13.30;9.87;;;;;;;4.07;86.27;95498.66;4343355;32;20185;-53
2023/03/03 06:00:57;;;;;;;8.73;7.83;;;;;;;3.94;86.28;95504.31;4329721;32;20301;-55
2023/03/03 06:03:23;;;;;;;9.67;8.87;;;;;;;4.10;86.27;95497.37;4323664;32;20290;-54
2023/03/03 06:05:49;;;;;;;8.70;8.03;;;;;;;4.10;86.11;95502.63;4313401;32;20290;-56
2023/03/03 06:08:15;;;;;;;8.50;7.80;;;;;;;3.78;87.15;95498.09;4325447;32;20364;-54
2023/03/03 06:10:42;;;;;;;8.33;7.70;;;;;;;3.95;86.72;95500.62;4330958;32;20197;-54
2023/03/03 06:13:09;;;;;;;9.70;8.83;;;;;;;3.98;86.45;95505.38;4328802;32;20344;-55
2023/03/03 06:15:35;;;;;;;9.93;9.03;;;;;;;4.07;86.20;95503.91;4344888;32;20364;-56
2023/03/03 06:18:03;;;;;;;10.00;8.87;;;;;;;4.19;85.54;95510.84;4327692;32;20299;-56
2023/03/03 06:20:28;;;;;;;9.43;8.67;;;;;;;4.05;85.61;95515.69;4323829;32;20284;-55
2023/03/03 06:22:55;;;;;;;12.93;9.10;;;;;;;4.09;85.56;95509.72;4279623;32;20358;-56
2023/03/03 06:25:22;;;;;;;10.20;9.33;;;;;;;4.05;86.17;95519.09;4304184;32;20207;-56
2023/03/03 06:27:49;;;;;;;8.80;8.03;;;;;;;4.01;85.96;95518.00;4309176;32;20292;-56
2023/03/03 06:30:15;;;;;;;9.70;8.80;;;;;;;4.11;85.70;95526.00;4331681;32;20380;-55
2023/03/03 06:32:44;;;;;;;9.30;8.53;;;;;;;4.03;85.83;95526.44;4345427;32;20288;-55
2023/03/03 06:35:09;;;;;;;8.10;7.27;;;;;;;4.13;85.58;95531.81;4334764;32;20293;-53
2023/03/03 06:37:36;;;;;;;9.40;8.63;;;;;;;4.13;85.50;95536.25;4327057;32;20360;-55
2023/03/03 06:40:09;;;;;;;9.73;8.53;;;;;;;3.95;86.37;95532.13;4346252;32;20195;-56
2023/03/03 06:42:34;;;;;;;9.53;8.63;;;;;;;4.14;86.20;95536.00;4332129;32;20424;-56
2023/03/03 06:44:59;;;;;;;9.53;8.67;;;;;;;4.25;85.53;95536.09;4346257;32;20320;-56
2023/03/03 06:47:26;;;;;;;8.60;7.80;;;;;;;4.20;85.41;95525.53;4311123;32;20209;-55
2023/03/03 06:49:53;;;;;;;8.47;7.83;;;;;;;4.07;85.95;95527.53;4358673;32;20197;-55
2023/03/03 06:52:23;;;;;;;10.03;9.20;;;;;;;4.08;86.32;95529.13;4312997;32;20361;-55
2023/03/03 06:55:10;;;;;;;16.43;9.50;;;;;;;4.00;86.58;95534.78;4324606;32;20312;-56
2023/03/03 06:57:37;;;;;;;10.23;8.87;;;;;;;4.07;86.23;95537.25;4310213;32;20366;-55
2023/03/03 07:00:26;;;;;;;10.83;9.70;;;;;;;4.09;86.40;95535.97;4320545;32;20274;-54
2023/03/03 07:03:13;;;;;;;8.23;7.63;;;;;;;4.34;85.74;95540.66;4302175;33;20288;-55
2023/03/03 07:05:39;;;;;;;9.23;8.53;;;;;;;4.45;85.01;95534.47;4318470;32;20289;-55
2023/03/03 07:08:16;;;;;;;14.23;9.43;;;;;;;4.34;85.00;95537.25;4341524;32;20333;-55
2023/03/03 07:10:45;;;;;;;9.33;8.63;;;;;;;4.30;85.37;95542.19;4327392;32;20353;-54
2023/03/03 07:13:26;;;;;;;14.73;11.00;;;;;;;4.40;84.62;95547.53;4320562;32;20289;-54
2023/03/03 07:15:55;;;;;;;10.00;9.03;;;;;;;4.36;85.33;95543.84;4309674;32;20282;-55
2023/03/03 07:18:46;;;;;;;8.47;7.73;;;;;;;4.43;84.77;95541.78;4346472;32;20274;-55
2023/03/03 07:21:32;;;;;;;8.77;8.13;;;;;;;4.40;85.16;95544.91;4336364;32;20305;-56
2023/03/03 07:24:14;;;;;;;8.53;7.70;;;;;;;4.45;84.50;95546.81;4317786;32;20286;-56
2023/03/03 07:26:41;;;;;;;10.10;9.23;;;;;;;4.64;84.08;95553.28;4319477;32;20289;-56
2023/03/03 07:29:32;;;;;;;8.77;7.33;;;;;;;4.61;83.92;95560.84;4339484;32;20291;-55
2023/03/03 07:31:59;;;;;;;16.77;9.50;;;;;;;4.47;84.10;95565.72;4331494;32;20289;-55
2023/03/03 07:34:45;;;;;;;10.07;9.13;;;;;;;4.16;85.43;95569.09;4352229;32;20292;-56
2023/03/03 07:37:37;;;;;;;3.40;3.17;;;;;;;4.20;85.11;95559.66;4309295;32;20338;-54
2023/03/03 07:40:28;;;;;;;5.73;5.33;;;;;;;9.37;100.00;95543.31;4316111;32;20312;-52
2023/03/03 07:42:54;;;;;;;6.73;6.13;;;;;;;9.25;85.40;95555.09;4297289;32;20282;-53
2023/03/03 07:45:34;;;;;;;7.47;6.90;;;;;;;9.87;74.67;95560.56;4338015;32;20289;-53
2023/03/03 07:48:46;;;;;;;7.83;7.23;;;;;;;10.55;67.80;95561.06;4338451;32;20270;-53
2023/03/03 07:51:25;;;;;;;9.33;7.23;;;;;;;10.97;65.28;95565.47;4340936;32;20279;-53
2023/03/03 07:54:17;;;;;;;12.17;9.27;;;;;;;11.32;62.33;95571.28;4291136;32;20294;-51
2023/03/03 07:56:44;;;;;;;13.10;9.83;;;;;;;11.33;60.10;95568.34;4345757;32;20231;-54
2023/03/03 07:59:24;;;;;;;11.60;9.13;;;;;;;11.40;59.21;95578.59;4337942;32;20185;-51
2023/03/03 08:01:57;;;;;;;11.77;9.13;;;;;;;9.80;59.75;95578.66;4347955;32;20233;-57
2023/03/03 08:04:46;;;;;;;17.17;10.20;;;;;;;8.85;62.98;95590.63;4325308;32;20185;-57
2023/03/03 08:07:19;;;;;;;12.03;10.93;;;;;;;7.97;66.46;95590.50;4357031;32;20252;-56
2023/03/03 08:10:00;;;;;;;9.53;8.63;;;;;;;7.03;70.61;95588.56;4358253;32;20216;-56
2023/03/03 08:12:43;;;;;;;10.63;9.73;;;;;;;6.60;72.77;95590.63;4334465;32;20247;-56
2023/03/03 08:15:37;;;;;;;10.47;9.53;;;;;;;5.98;75.76;95591.50;4342681;32;20389;-54
2023/03/03 08:18:20;;;;;;;8.97;8.37;;;;;;;5.94;76.65;95595.69;4325286;32;20389;-54
2023/03/03 08:20:55;;;;;;;9.37;7.97;;;;;;;5.63;77.67;95589.44;4341217;32;20355;-56
2023/03/03 08:23:20;;;;;;;9.40;8.60;;;;;;;5.70;78.27;95591.88;4338975;32;20345;-58
2023/03/03 08:25:50;;;;;;;7.53;5.40;;;;;;;5.70;78.37;95583.97;4321857;32;20302;-50
2023/03/03 08:28:17;;;;;;;5.63;5.23;;;;;;;7.47;88.32;95571.13;4315060;32;20182;-52
2023/03/03 08:30:46;;;;;;;7.63;6.87;;;;;;;9.75;79.27;95560.19;4335370;32;20274;-53
2023/03/03 08:33:14;;;;;;;6.83;6.23;;;;;;;12.33;67.03;95561.44;4314930;32;20357;-51
2023/03/03 08:35:41;;;;;;;10.07;8.37;;;;;;;13.47;59.89;95571.94;4351455;32;20213;-53
2023/03/03 08:38:10;;;;;;;10.53;8.30;;;;;;;14.29;53.25;95569.44;4327978;32;20193;-50
2023/03/03 08:40:37;;;;;;;5.97;5.47;;;;;;;15.56;51.08;95567.47;4330646;32;20197;-51
2023/03/03 08:43:07;;;;;;;9.07;8.03;;;;;;;16.32;48.79;95570.16;4350652;32;20254;-47
2023/03/03 08:45:34;;;;;;;11.73;9.63;;;;;;;16.49;46.33;95573.53;4324977;32;20304;-53
2023/03/03 08:48:03;;;;;;;8.07;7.43;;;;;;;17.66;44.29;95582.44;4330356;32;20217;-59
2023/03/03 08:50:29;;;;;;;12.87;8.77;;;;;;;16.01;41.96;95584.62;4324273;32;20187;-58
2023/03/03 08:52:57;;;;;;;9.17;8.13;;;;;;;13.09;47.30;95597.00;4316471;32;20242;-58
2023/03/03 08:55:23;;;;;;;12.00;10.87;;;;;;;10.79;53.57;95606.09;4336616;32;20197;-59
2023/03/03 08:57:50;;;;;;;12.80;10.67;;;;;;;9.30;59.36;95615.16;4327961;32;20204;-58
2023/03/03 09:00:19;;;;;;;12.03;10.17;;;;;;;8.60;62.27;95606.62;4328509;32;20193;-57
2023/03/03 09:02:49;;;;;;;12.57;11.17;;;;;;;7.98;66.12;95607.94;4338511;32;20204;-58
2023/03/03 09:05:20;;;;;;;14.40;11.93;;;;;;;7.33;69.57;95608.84;4327707;32;20200;-54
2023/03/03 09:07:59;;;;;;;21.40;10.07;;;;;;;7.33;69.09;95608.84;4322020;32;20221;-58
2023/03/03 09:10:29;;;;;;;9.53;8.80;;;;;;;6.84;71.48;95609.41;4335025;32;20464;-58
2023/03/03 09:13:01;;;;;;;10.27;8.63;;;;;;;6.72;73.06;95606.19;4340124;32;20216;-58
2023/03/03 09:15:33;;;;;;;13.03;10.60;;;;;;;6.65;73.25;95606.44;4343950;32;20223;-58
2023/03/03 09:18:08;;;;;;;9.87;8.77;;;;;;;7.01;72.53;95611.78;4342887;32;20278;-54
2023/03/03 09:20:39;;;;;;;11.10;9.97;;;;;;;6.84;73.15;95615.47;4342765;32;20410;-55
2023/03/03 09:23:42;;;;;;;12.37;8.70;;;;;;;6.25;74.82;95616.88;4340290;32;20323;-58
2023/03/03 09:26:30;;;;;;;10.47;7.80;;;;;;;6.07;76.14;95610.22;4323652;33;20277;-58
2023/03/03 09:29:24;;;;;;;11.07;8.20;;;;;;;6.45;74.88;95609.81;4328240;32;20368;-56
2023/03/03 09:32:38;;;;;;;6.37;5.97;;;;;;;6.65;74.01;95613.59;4312205;32;20270;-57
2023/03/03 09:35:45;;;;;;;9.23;8.33;;;;;;;6.61;74.26;95620.41;4310456;32;20292;-58
2023/03/03 09:38:28;;;;;;;9.43;7.60;;;;;;;6.55;74.30;95622.25;4290172;33;20343;-59
2023/03/03 09:41:12;;;;;;;7.80;7.00;;;;;;;6.62;74.30;95632.56;4337523;32;20335;-58
2023/03/03 09:44:21;;;;;;;8.47;7.77;;;;;;;6.89;74.07;95622.56;4354406;32;20296;-58
2023/03/03 09:47:32;;;;;;;8.97;8.27;;;;;;;6.73;74.34;95628.88;4331771;32;20290;-58
2023/03/03 09:50:35;;;;;;;8.53;7.73;;;;;;;6.77;73.59;95620.19;4295998;33;20284;-57
2023/03/03 09:53:36;;;;;;;8.83;8.13;;;;;;;6.85;73.87;95627.59;4286530;33;20317;-58
2023/03/03 09:56:28;;;;;;;12.57;9.10;;;;;;;6.76;74.31;95634.41;4347457;32;20372;-58
2023/03/03 09:59:21;;;;;;;11.60;9.57;;;;;;;6.96;73.65;95643.41;4342113;32;20384;-58
2023/03/03 10:02:25;;;;;;;11.20;8.10;;;;;;;6.95;73.16;95641.81;4326078;32;20343;-58
2023/03/03 10:05:27;;;;;;;9.63;8.70;;;;;;;6.62;74.42;95643.09;4334806;32;20270;-57
2023/03/03 10:08:35;;;;;;;8.67;7.87;;;;;;;6.94;73.27;95641.03;4331012;32;20289;-58
2023/03/03 10:11:28;;;;;;;8.47;7.87;;;;;;;7.00;73.45;95645.28;4324123;32;20325;-52
2023/03/03 10:14:32;;;;;;;9.67;8.87;;;;;;;7.33;71.71;95637.88;4342437;32;20361;-57
2023/03/03 10:17:35;;;;;;;8.40;7.73;;;;;;;7.15;72.24;95647.13;4338045;32;20335;-58
2023/03/03 10:20:39;;;;;;;8.77;7.73;;;;;;;6.95;72.62;95649.75;4342738;32;20284;-57
2023/03/03 10:23:22;;;;;;;8.53;7.83;;;;;;;6.90;73.66;95650.50;4341834;32;20274;-58
2023/03/03 10:26:32;;;;;;;9.23;8.40;;;;;;;6.89;74.07;95652.34;4346319;32;20293;-58
2023/03/03 10:29:36;;;;;;;6.97;6.53;;;;;;;7.16;72.37;95651.34;4333997;32;20282;-57
2023/03/03 10:32:40;;;;;;;8.83;7.97;;;;;;;7.51;71.15;95651.34;4317565;32;20285;-58
2023/03/03 10:35:48;;;;;;;9.13;8.33;;;;;;;7.19;72.34;95664.00;4335637;32;20324;-57
2023/03/03 10:38:37;;;;;;;9.83;8.90;;;;;;;7.49;71.14;95658.72;4332461;32;20349;-54
2023/03/03 10:41:32;;;;;;;13.73;9.23;;;;;;;7.49;71.37;95661.34;4321206;32;20457;-57
2023/03/03 10:44:42;;;;;;;9.87;8.80;;;;;;;7.39;72.11;95653.47;4346214;32;20304;-58
2023/03/03 10:47:41;;;;;;;11.00;9.43;;;;;;;7.39;72.11;95648.19;4336573;32;20273;-57
2023/03/03 10:50:45;;;;;;;10.07;9.13;;;;;;;7.48;71.51;95651.09;4333071;32;20341;-56
2023/03/03 10:54:10;;;;;;;11.40;8.03;;;;;;;7.44;71.16;95656.09;4347534;32;20281;-57
2023/03/03 10:56:58;;;;;;;9.23;8.60;;;;;;;7.45;71.47;95646.34;4224022;33;20399;-58
2023/03/03 11:00:15;;;;;;;9.63;8.70;;;;;;;7.51;71.52;95638.12;4319104;32;20288;-57
2023/03/03 11:02:57;;;;;;;8.33;7.53;;;;;;;7.63;71.38;95637.88;4305512;32;20281;-56
2023/03/03 11:05:53;;;;;;;8.97;8.13;;;;;;;7.61;71.80;95639.97;4357729;32;20288;-58
2023/03/03 11:08:53;;;;;;;10.40;8.23;;;;;;;7.61;71.23;95644.47;4358815;32;20304;-55
2023/03/03 11:11:25;;;;;;;9.27;8.37;;;;;;;7.79;70.68;95649.97;4341429;32;20295;-56
2023/03/03 11:14:30;;;;;;;14.87;9.17;;;;;;;7.77;71.04;95651.31;4355040;32;20280;-58
2023/03/03 11:17:19;;;;;;;10.20;9.20;;;;;;;7.93;70.05;95658.13;4300172;32;20247;-58
2023/03/03 11:20:29;;;;;;;13.10;10.33;;;;;;;7.81;70.63;95655.00;4273576;32;20289;-59
2023/03/03 11:23:17;;;;;;;12.40;9.97;;;;;;;7.92;70.12;95661.84;4313597;32;20301;-57
2023/03/03 11:26:27;;;;;;;9.43;8.30;;;;;;;8.10;70.32;95661.28;4322019;32;20278;-57
2023/03/03 11:29:26;;;;;;;8.63;7.60;;;;;;;7.91;70.38;95660.25;4326053;32;20277;-57
2023/03/03 11:31:59;;;;;;;12.03;10.87;;;;;;;8.09;69.01;95661.56;4339811;32;20341;-58
2023/03/03 11:35:05;;;;;;;10.67;9.67;;;;;;;8.15;69.19;95666.53;4354208;32;20232;-56
2023/03/03 11:37:51;;;;;;;9.83;8.97;;;;;;;8.06;69.38;95660.22;4360714;32;20285;-58
2023/03/03 11:40:46;;;;;;;9.87;8.93;;;;;;;8.25;68.96;95655.94;4337548;32;20276;-58
2023/03/03 11:43:52;;;;;;;10.90;8.63;;;;;;;8.06;70.62;95657.59;4356514;32;20292;-52
2023/03/03 11:46:33;;;;;;;14.07;9.40;;;;;;;8.20;69.56;95645.38;4311432;32;20404;-57
2023/03/03 11:49:21;;;;;;;8.77;8.07;;;;;;;8.41;68.57;95640.03;4339518;32;20347;-57
2023/03/03 11:52:19;;;;;;;10.93;9.93;;;;;;;7.94;70.45;95643.88;4341315;32;20273;-53
2023/03/03 11:55:27;;;;;;;11.73;9.00;;;;;;;8.03;70.47;95638.84;4359668;32;20244;-56
2023/03/03 11:58:37;;;;;;;12.93;11.50;;;;;;;8.07;69.76;95632.75;4245834;33;20356;-54
2023/03/03 12:01:36;;;;;;;9.10;8.43;;;;;;;8.24;70.91;95621.84;4256066;33;20260;-57
2023/03/03 12:04:17;;;;;;;9.60;8.77;;;;;;;8.86;67.88;95616.00;4273158;33;20191;-59
2023/03/03 12:07:20;;;;;;;9.90;9.07;;;;;;;8.98;66.59;95620.94;4314402;32;20208;-60
2023/03/03 12:10:07;;;;;;;10.53;9.53;;;;;;;8.69;67.08;95618.22;4299763;32;20212;-59
2023/03/03 12:12:47;;;;;;;10.77;8.93;;;;;;;8.52;66.96;95612.50;4307595;32;20272;-58
2023/03/03 12:15:42;;;;;;;11.70;10.63;;;;;;;8.28;69.32;95617.63;4320635;32;20184;-58
2023/03/03 12:18:24;;;;;;;9.73;8.83;;;;;;;8.46;68.02;95618.87;4339831;32;20182;-58
2023/03/03 12:21:07;;;;;;;10.73;9.63;;;;;;;8.31;68.67;95617.06;4350677;32;20180;-58
2023/03/03 12:24:00;;;;;;;10.80;9.83;;;;;;;8.16;69.13;95615.25;4284575;33;20269;-58
2023/03/03 12:26:42;;;;;;;11.50;9.83;;;;;;;8.18;69.94;95612.34;4317503;32;20259;-58